ADDS METAR Data INFO
IDs: Format: Raw Decoded Include TAF

Data at: 2053 UTC 26 May 2017

KHRL 261952Z 16018G25KT 10SM SCT039 36/25 A2979 RMK AO2 PK WND 15028/1918 SLP087 T03560250
KHRL 261852Z 18017G27KT 10SM FEW037 36/25 A2980 RMK AO2 PK WND 17028/1805 SLP091 T03560250
KHRL 261752Z 17019G26KT 10SM BKN033 34/25 A2981 RMK AO2 PK WND 19029/1737 SLP095 T03440250 10344 20267 50003
KHRL 261652Z 17024G29KT 10SM BKN031 34/25 A2982 RMK AO2 PK WND 16030/1630 SLP096 T03390250
KHRL 261622Z 18019G28KT 10SM SCT029 BKN035 33/25 A2981 RMK AO2 PK WND 17028/1620 T03330250
KHRL 261608Z 17021G27KT 10SM BKN029 33/25 A2981 RMK AO2 PK WND 18027/1559 T03280250
KHRL 261552Z 17022G29KT 10SM BKN031 33/25 A2980 RMK AO2 PK WND 16031/1538 SLP091 T03280250
KHRL 261452Z 17022G29KT 10SM BKN024 OVC030 31/25 A2980 RMK AO2 PK WND 17030/1438 SLP092 T03110250 51010
KHRL 261352Z 16019G25KT 10SM OVC021 29/26 A2980 RMK AO2 PK WND 16028/1316 SLP092 T02890256
KHRL 261252Z 17018G25KT 10SM OVC019 27/26 A2979 RMK AO2 SLP088 T02720256
KHRL 261152Z 16014G22KT 10SM OVC024 27/25 A2978 RMK AO2 SLP082 T02670250 10267 20261 53003
KHRL 261052Z 16014KT 10SM BKN018 26/25 A2977 RMK AO2 SLP080 T02610250
KHRL 261036Z AUTO 16013G20KT 10SM SCT016 26/25 A2977 RMK AO2 T02610250
KHRL 260952Z AUTO 16014G22KT 10SM BKN018 26/25 A2977 RMK AO2 SLP079 T02610250
KHRL 260852Z AUTO 16017KT 10SM BKN018 27/25 A2976 RMK AO2 SLP078 T02670250 56013
KHRL 260842Z AUTO 17018G22KT 10SM BKN018 27/25 A2976 RMK AO2 T02670250
KHRL 260752Z AUTO 16017G24KT 10SM CLR 26/24 A2976 RMK AO2 PK WND 15026/0710 SLP078 T02610244
KHRL 260652Z AUTO 16018G23KT 10SM FEW017 FEW025 26/25 A2978 RMK AO2 SLP083 T02610250
KHRL 260618Z AUTO 16013KT 10SM SCT018 SCT023 26/24 A2980 RMK AO2 T02610244
KHRL 260552Z AUTO 16015KT 10SM BKN018 26/24 A2980 RMK AO2 SLP091 T02610244 10300 20256 403440167 51014
KHRL 260452Z 16013KT 10SM BKN016 26/24 A2980 RMK AO2 SLP090 T02560244
KHRL 260441Z 16010KT 10SM BKN016 26/25 A2980 RMK AO2 T02610250
KHRL 260352Z 16013KT 10SM SCT017 26/24 A2979 RMK AO2 SLP086 T02610244
KHRL 260252Z 15014KT 10SM CLR 26/24 A2976 RMK AO2 SLP077 T02610244 53021
KHRL 260152Z 15016KT 10SM FEW024 27/24 A2974 RMK AO2 SLP070 T02670239
KHRL 260145Z 16015KT 10SM SCT024 27/24 A2974 RMK AO2 T02720239
KHRL 260111Z 15016G23KT 10SM SCT025 28/24 A2973 RMK AO2 T02780239
KHRL 260052Z 16017KT 10SM BKN027 28/24 A2972 RMK AO2 SLP062 T02830239
KHRL 260033Z 15018KT 10SM OVC028 29/24 A2971 RMK AO2 T02890239
KHRL 252352Z 14020KT 10SM BKN032 30/24 A2970 RMK AO2 PK WND 15027/2336 SLP056 T03000239 10344 20300 55008
KHRL 252252Z 17020G25KT 10SM FEW034 32/24 A2970 RMK AO2 PK WND 15027/2222 SLP056 T03170239
KHRL 252152Z 15020G25KT 10SM FEW035 33/24 A2971 RMK AO2 PK WND 15027/2129 SLP059 T03330239
KHRL 252052Z 16018G27KT 10SM FEW037 34/23 A2972 RMK AO2 PK WND 17028/2034 SLP064 T03390233 58021
KHRL 251952Z 15019G24KT 10SM BKN037 33/23 A2975 RMK AO2 SLP074 T03330233
KHRL 251852Z 16017G26KT 10SM BKN039 33/23 A2977 RMK AO2 PK WND 16026/1822 SLP081 T03280228
KHRL 251752Z 17019G26KT 10SM BKN037 33/22 A2978 RMK AO2 PK WND 16027/1712 SLP085 T03330222 10333 20178 58007
KHRL 251652Z 15018G26KT 10SM FEW036 32/22 A2979 RMK AO2 PK WND 15028/1627 SLP088 T03220217
KHRL 251552Z 17018G23KT 10SM CLR 31/21 A2980 RMK AO2 PK WND 18026/1541 SLP091 T03110211
KHRL 251452Z 16017KT 10SM CLR 29/20 A2980 RMK AO2 SLP092 T02940200 51006
KHRL 251352Z 16014KT 10SM CLR 27/21 A2980 RMK AO2 SLP091 T02670206
KHRL 251252Z 14008KT 10SM FEW041 22/20 A2980 RMK AO2 SLP090 T02220200
KHRL 251152Z 13005KT 10SM CLR 18/17 A2979 RMK AO2 SLP087 T01780172 10183 20167 53000
KHRL 251052Z 13005KT 10SM CLR 18/18 A2978 RMK AO2 SLP085 T01830178
KHRL 250952Z AUTO 14007KT 10SM CLR 17/17 A2978 RMK AO2 SLP084 T01670167


Page loaded:  20:53 UTC  |   01:53 PM Pacific  |   02:53 PM Mountain  |   03:53 PM Central  |   04:53 PM Eastern

 

ADVISORIES

FORECASTS

FORECASTS

OBSERVATIONS

USER TOOLS

ABOUT US